Time,TemperatureF,DewpointF,PressureIn,WindDirection,WindDirectionDegrees,WindSpeedMPH,WindSpeedGustMPH,Humidity,HourlyPrecipIn,Conditions,Clouds,dailyrainin,SolarRadiationWatts/m^2,SoftwareType,DateUTC
2013-06-15 00:08:00,61.1,54.0,30.26,SW,236,0.0,2.0,78,0.00,,,0.00,0,weatherlink.com 1.10,2013-06-15 08:08:00,
2013-06-15 00:23:00,59.4,54.0,30.26,SW,236,4.0,5.0,81,0.00,,,0.00,0,weatherlink.com 1.10,2013-06-15 08:23:00,
2013-06-15 00:38:00,58.1,52.0,30.26,SW,236,0.0,4.0,80,0.00,,,0.00,0,weatherlink.com 1.10,2013-06-15 08:38:00,
2013-06-15 00:53:00,57.0,52.0,30.27,East,86,5.0,6.0,82,0.00,,,0.00,0,weatherlink.com 1.10,2013-06-15 08:53:00,
2013-06-15 01:08:00,57.8,51.0,30.27,ESE,103,3.0,11.0,79,0.00,,,0.00,0,weatherlink.com 1.10,2013-06-15 09:08:00,
2013-06-15 01:23:00,59.1,50.0,30.27,ESE,113,0.0,6.0,73,0.00,,,0.00,0,weatherlink.com 1.10,2013-06-15 09:23:00,
2013-06-15 01:38:00,58.6,50.0,30.28,ESE,104,0.0,6.0,73,0.00,,,0.00,0,weatherlink.com 1.10,2013-06-15 09:38:00,
2013-06-15 01:53:00,58.1,49.0,30.29,SE,131,3.0,7.0,73,0.00,,,0.00,0,weatherlink.com 1.10,2013-06-15 09:53:00,
2013-06-15 02:08:00,57.2,49.0,30.29,SSE,164,5.0,15.0,73,0.00,,,0.00,0,weatherlink.com 1.10,2013-06-15 10:08:00,
2013-06-15 02:23:00,56.6,49.0,30.29,SSE,161,1.0,8.0,75,0.00,,,0.00,0,weatherlink.com 1.10,2013-06-15 10:23:00,
2013-06-15 02:38:00,56.1,49.0,30.29,SSE,168,4.0,7.0,76,0.00,,,0.00,0,weatherlink.com 1.10,2013-06-15 10:38:00,
2013-06-15 02:54:00,55.8,48.0,30.29,SSE,163,3.0,6.0,76,0.00,,,0.00,0,weatherlink.com 1.10,2013-06-15 10:54:00,
2013-06-15 03:09:00,55.5,48.0,30.30,SSE,163,0.0,5.0,77,0.00,,,0.00,0,weatherlink.com 1.10,2013-06-15 11:09:00,
2013-06-15 03:24:00,55.3,49.0,30.30,SSE,163,0.0,2.0,78,0.00,,,0.00,0,weatherlink.com 1.10,2013-06-15 11:24:00,
2013-06-15 03:39:00,55.2,49.0,30.30,SSE,163,0.0,1.0,79,0.00,,,0.00,0,weatherlink.com 1.10,2013-06-15 11:39:00,
2013-06-15 03:54:00,55.0,49.0,30.30,SSE,163,0.0,0.0,79,0.00,,,0.00,0,weatherlink.com 1.10,2013-06-15 11:54:00,
2013-06-15 04:09:00,55.2,49.0,30.30,SSE,163,0.0,1.0,79,0.00,,,0.00,0,weatherlink.com 1.10,2013-06-15 12:09:00,
2013-06-15 04:24:00,55.0,49.0,30.30,SSE,163,1.0,2.0,79,0.00,,,0.00,0,weatherlink.com 1.10,2013-06-15 12:24:00,
2013-06-15 04:39:00,54.4,49.0,30.30,SSE,163,1.0,3.0,83,0.00,,,0.00,9,weatherlink.com 1.10,2013-06-15 12:39:00,
2013-06-15 04:54:00,54.3,49.0,30.30,SSE,163,0.0,4.0,83,0.00,,,0.00,14,weatherlink.com 1.10,2013-06-15 12:54:00,
2013-06-15 05:09:00,54.4,49.0,30.30,SSE,163,0.0,1.0,82,0.00,,,0.00,23,weatherlink.com 1.10,2013-06-15 13:09:00,
2013-06-15 05:24:00,55.1,50.0,30.30,SSE,163,1.0,2.0,82,0.00,,,0.00,37,weatherlink.com 1.10,2013-06-15 13:24:00,
2013-06-15 05:39:00,55.8,50.0,30.31,SSE,163,2.0,4.0,80,0.00,,,0.00,62,weatherlink.com 1.10,2013-06-15 13:39:00,
2013-06-15 05:54:00,55.0,49.0,30.31,SSE,163,2.0,4.0,81,0.00,,,0.00,35,weatherlink.com 1.10,2013-06-15 13:54:00,
2013-06-15 06:09:00,55.4,48.0,30.31,NNE,15,0.0,5.0,77,0.00,,,0.00,114,weatherlink.com 1.10,2013-06-15 14:09:00,
2013-06-15 06:24:00,55.3,47.0,30.32,North,10,1.0,4.0,74,0.00,,,0.00,144,weatherlink.com 1.10,2013-06-15 14:24:00,
2013-06-15 06:39:00,56.8,48.0,30.32,North,10,1.0,3.0,72,0.00,,,0.00,174,weatherlink.com 1.10,2013-06-15 14:39:00,
2013-06-15 06:54:00,58.4,48.0,30.32,NNW,338,2.0,5.0,69,0.00,,,0.00,202,weatherlink.com 1.10,2013-06-15 14:54:00,
2013-06-15 07:09:00,58.4,50.0,30.32,NW,320,0.0,5.0,73,0.00,,,0.00,236,weatherlink.com 1.10,2013-06-15 15:09:00,
2013-06-15 07:24:00,56.5,49.0,30.32,SW,231,8.0,11.0,77,0.00,,,0.00,269,weatherlink.com 1.10,2013-06-15 15:24:00,
2013-06-15 07:39:00,55.9,50.0,30.32,West,269,8.0,11.0,80,0.00,,,0.00,292,weatherlink.com 1.10,2013-06-15 15:39:00,
2013-06-15 07:54:00,55.0,49.0,30.32,SW,217,7.0,11.0,81,0.00,,,0.00,323,weatherlink.com 1.10,2013-06-15 15:54:00,
2013-06-15 08:09:00,54.2,49.0,30.32,SSW,209,10.0,11.0,82,0.00,,,0.00,352,weatherlink.com 1.10,2013-06-15 16:09:00,
2013-06-15 08:24:00,54.3,49.0,30.32,WSW,245,6.0,9.0,82,0.00,,,0.00,385,weatherlink.com 1.10,2013-06-15 16:24:00,
2013-06-15 08:39:00,54.3,49.0,30.32,WSW,238,7.0,10.0,82,0.00,,,0.00,396,weatherlink.com 1.10,2013-06-15 16:39:00,
2013-06-15 08:54:00,54.6,49.0,30.32,WSW,249,7.0,9.0,82,0.00,,,0.00,415,weatherlink.com 1.10,2013-06-15 16:54:00,
2013-06-15 09:09:00,54.9,49.0,30.32,SW,221,7.0,11.0,81,0.00,,,0.00,434,weatherlink.com 1.10,2013-06-15 17:09:00,
2013-06-15 09:24:00,55.0,49.0,30.33,SSW,211,7.0,12.0,81,0.00,,,0.00,158,weatherlink.com 1.10,2013-06-15 17:24:00,
2013-06-15 09:39:00,55.7,49.0,30.33,WSW,241,9.0,11.0,79,0.00,,,0.00,515,weatherlink.com 1.10,2013-06-15 17:39:00,
2013-06-15 09:54:00,54.8,49.0,30.32,SSW,209,5.0,12.0,81,0.00,,,0.00,555,weatherlink.com 1.10,2013-06-15 17:54:00,
2013-06-15 10:09:00,54.9,49.0,30.32,SW,217,8.0,12.0,80,0.00,,,0.00,587,weatherlink.com 1.10,2013-06-15 18:09:00,
2013-06-15 10:24:00,55.5,49.0,30.32,SSW,202,9.0,13.0,79,0.00,,,0.00,612,weatherlink.com 1.10,2013-06-15 18:24:00,
2013-06-15 10:39:00,56.1,49.0,30.32,SW,217,5.0,10.0,78,0.00,,,0.00,638,weatherlink.com 1.10,2013-06-15 18:39:00,
2013-06-15 10:54:00,56.4,49.0,30.32,SSW,201,7.0,11.0,77,0.00,,,0.00,657,weatherlink.com 1.10,2013-06-15 18:54:00,
2013-06-15 11:09:00,57.2,50.0,30.32,SW,234,8.0,10.0,77,0.00,,,0.00,679,weatherlink.com 1.10,2013-06-15 19:09:00,
2013-06-15 11:24:00,57.1,50.0,30.31,WSW,242,4.0,9.0,77,0.00,,,0.00,670,weatherlink.com 1.10,2013-06-15 19:24:00,
2013-06-15 11:39:00,57.8,50.0,30.31,SW,232,6.0,10.0,75,0.00,,,0.00,694,weatherlink.com 1.10,2013-06-15 19:39:00,
2013-06-15 11:54:00,57.1,50.0,30.31,WSW,238,8.0,10.0,78,0.00,,,0.00,703,weatherlink.com 1.10,2013-06-15 19:54:00,
2013-06-15 12:09:00,57.2,50.0,30.30,SSW,201,8.0,11.0,78,0.00,,,0.00,288,weatherlink.com 1.10,2013-06-15 20:09:00,
2013-06-15 12:24:00,55.8,50.0,30.30,SW,230,7.0,11.0,80,0.00,,,0.00,724,weatherlink.com 1.10,2013-06-15 20:24:00,
2013-06-15 12:40:00,56.8,50.0,30.30,SW,224,2.0,10.0,78,0.00,,,0.00,362,weatherlink.com 1.10,2013-06-15 20:40:00,
2013-06-15 12:55:00,59.4,51.0,30.30,SSW,212,1.0,10.0,74,0.00,,,0.00,67,weatherlink.com 1.10,2013-06-15 20:55:00,
2013-06-15 13:10:00,60.6,52.0,30.29,SW,225,5.0,9.0,72,0.00,,,0.00,53,weatherlink.com 1.10,2013-06-15 21:10:00,
2013-06-15 13:25:00,58.3,51.0,30.29,WSW,248,8.0,11.0,76,0.00,,,0.00,53,weatherlink.com 1.10,2013-06-15 21:25:00,
2013-06-15 13:40:00,59.1,51.0,30.29,SW,215,6.0,11.0,75,0.00,,,0.00,58,weatherlink.com 1.10,2013-06-15 21:40:00,
2013-06-15 13:55:00,59.2,49.0,30.29,WSW,237,11.0,12.0,70,0.00,,,0.00,69,weatherlink.com 1.10,2013-06-15 21:55:00,
2013-06-15 14:10:00,58.8,50.0,30.29,WSW,246,12.0,14.0,73,0.00,,,0.00,83,weatherlink.com 1.10,2013-06-15 22:10:00,
2013-06-15 14:25:00,59.0,51.0,30.28,WSW,241,7.0,13.0,74,0.00,,,0.00,90,weatherlink.com 1.10,2013-06-15 22:25:00,
2013-06-15 14:40:00,60.1,51.0,30.28,SSW,204,7.0,12.0,71,0.00,,,0.00,98,weatherlink.com 1.10,2013-06-15 22:40:00,
2013-06-15 14:55:00,61.7,51.0,30.28,WSW,249,5.0,13.0,67,0.00,,,0.00,104,weatherlink.com 1.10,2013-06-15 22:55:00,
2013-06-15 15:10:00,60.8,51.0,30.28,SW,230,8.0,12.0,71,0.00,,,0.00,105,weatherlink.com 1.10,2013-06-15 23:10:00,
2013-06-15 15:25:00,62.7,52.0,30.27,SW,228,9.0,10.0,68,0.00,,,0.00,134,weatherlink.com 1.10,2013-06-15 23:25:00,
2013-06-15 15:40:00,61.6,51.0,30.27,WSW,240,10.0,13.0,69,0.00,,,0.00,617,weatherlink.com 1.10,2013-06-15 23:40:00,
2013-06-15 15:55:00,61.8,52.0,30.27,SW,236,10.0,12.0,70,0.00,,,0.00,350,weatherlink.com 1.10,2013-06-15 23:55:00,
2013-06-15 16:10:00,61.9,52.0,30.27,SW,223,6.0,10.0,70,0.00,,,0.00,209,weatherlink.com 1.10,2013-06-16 00:10:00,
2013-06-15 16:25:00,61.6,51.0,30.27,SW,223,8.0,9.0,69,0.00,,,0.00,204,weatherlink.com 1.10,2013-06-16 00:25:00,
2013-06-15 16:40:00,62.0,51.0,30.26,WSW,239,5.0,9.0,68,0.00,,,0.00,292,weatherlink.com 1.10,2013-06-16 00:40:00,
2013-06-15 16:55:00,64.2,51.0,30.25,SW,221,0.0,7.0,63,0.00,,,0.00,295,weatherlink.com 1.10,2013-06-16 00:55:00,
2013-06-15 17:10:00,66.6,53.0,30.25,SW,236,3.0,8.0,63,0.00,,,0.00,656,weatherlink.com 1.10,2013-06-16 01:10:00,
2013-06-15 17:25:00,66.0,52.0,30.25,WSW,252,6.0,10.0,62,0.00,,,0.00,186,weatherlink.com 1.10,2013-06-16 01:25:00,
2013-06-15 17:40:00,64.7,53.0,30.25,WSW,246,7.0,9.0,66,0.00,,,0.00,482,weatherlink.com 1.10,2013-06-16 01:40:00,
2013-06-15 17:55:00,65.9,53.0,30.25,WSW,241,7.0,9.0,64,0.00,,,0.00,582,weatherlink.com 1.10,2013-06-16 01:55:00,
2013-06-15 18:10:00,67.1,54.0,30.24,SW,232,2.0,10.0,63,0.00,,,0.00,401,weatherlink.com 1.10,2013-06-16 02:10:00,
2013-06-15 18:25:00,68.0,54.0,30.25,SW,216,6.0,8.0,62,0.00,,,0.00,554,weatherlink.com 1.10,2013-06-16 02:25:00,
2013-06-15 18:40:00,69.3,55.0,30.24,WSW,252,9.0,11.0,61,0.00,,,0.00,517,weatherlink.com 1.10,2013-06-16 02:40:00,
2013-06-15 18:55:00,68.1,54.0,30.24,SW,232,5.0,11.0,61,0.00,,,0.00,545,weatherlink.com 1.10,2013-06-16 02:55:00,
2013-06-15 19:10:00,68.1,54.0,30.24,SW,235,8.0,11.0,62,0.00,,,0.00,202,weatherlink.com 1.10,2013-06-16 03:10:00,
2013-06-15 19:25:00,67.0,53.0,30.23,WSW,239,6.0,9.0,62,0.00,,,0.00,128,weatherlink.com 1.10,2013-06-16 03:25:00,
2013-06-15 19:40:00,65.7,52.0,30.23,WSW,239,6.0,8.0,62,0.00,,,0.00,149,weatherlink.com 1.10,2013-06-16 03:40:00,
2013-06-15 19:55:00,66.5,53.0,30.23,SW,219,5.0,7.0,62,0.00,,,0.00,318,weatherlink.com 1.10,2013-06-16 03:55:00,
2013-06-15 20:10:00,68.5,54.0,30.23,SW,219,4.0,6.0,61,0.00,,,0.00,278,weatherlink.com 1.10,2013-06-16 04:10:00,
2013-06-15 20:25:00,70.3,55.0,30.23,SSE,150,0.0,6.0,59,0.00,,,0.00,255,weatherlink.com 1.10,2013-06-16 04:25:00,
2013-06-15 20:40:00,69.7,55.0,30.23,WSW,254,4.0,6.0,60,0.00,,,0.00,227,weatherlink.com 1.10,2013-06-16 04:40:00,
2013-06-15 20:55:00,66.8,55.0,30.23,WSW,242,5.0,7.0,65,0.00,,,0.00,200,weatherlink.com 1.10,2013-06-16 04:55:00,
2013-06-15 21:10:00,67.0,55.0,30.23,WSW,240,4.0,5.0,65,0.00,,,0.00,172,weatherlink.com 1.10,2013-06-16 05:10:00,
2013-06-15 21:25:00,66.6,55.0,30.23,WSW,243,3.0,5.0,67,0.00,,,0.00,146,weatherlink.com 1.10,2013-06-16 05:25:00,
2013-06-15 21:40:00,63.9,54.0,30.23,WSW,247,5.0,7.0,70,0.00,,,0.00,114,weatherlink.com 1.10,2013-06-16 05:40:00,
2013-06-15 21:55:00,64.9,54.0,30.23,WSW,247,0.0,5.0,68,0.00,,,0.00,88,weatherlink.com 1.10,2013-06-16 05:55:00,
2013-06-15 22:10:00,64.8,54.0,30.23,WSW,247,4.0,5.0,69,0.00,,,0.00,63,weatherlink.com 1.10,2013-06-16 06:10:00,
2013-06-15 22:25:00,64.8,54.0,30.23,WSW,248,1.0,2.0,69,0.00,,,0.00,44,weatherlink.com 1.10,2013-06-16 06:25:00,
2013-06-15 22:40:00,63.6,54.0,30.22,WSW,248,1.0,4.0,72,0.00,,,0.00,28,weatherlink.com 1.10,2013-06-16 06:40:00,
2013-06-15 22:55:00,61.9,54.0,30.23,WSW,248,1.0,4.0,74,0.00,,,0.00,19,weatherlink.com 1.10,2013-06-16 06:55:00,
2013-06-15 23:10:00,60.3,53.0,30.23,WSW,248,2.0,3.0,76,0.00,,,0.00,16,weatherlink.com 1.10,2013-06-16 07:10:00,
2013-06-15 23:25:00,60.1,53.0,30.23,WSW,248,2.0,4.0,77,0.00,,,0.00,11,weatherlink.com 1.10,2013-06-16 07:25:00,
2013-06-15 23:40:00,59.5,52.0,30.24,WSW,248,2.0,3.0,77,0.00,,,0.00,5,weatherlink.com 1.10,2013-06-16 07:40:00,
2013-06-15 23:55:00,59.1,52.0,30.23,WSW,248,2.0,3.0,78,0.00,,,0.00,0,weatherlink.com 1.10,2013-06-16 07:55:00,